sensor_id;sensor_type;location;lat;lon;timestamp;temperature;humidity
54429;DHT22;40337;52.978;6.310;2023-09-18T00:01:11;16.00;99.90
54429;DHT22;40337;52.978;6.310;2023-09-18T00:03:37;15.90;99.90
54429;DHT22;40337;52.978;6.310;2023-09-18T00:06:02;16.00;99.90
54429;DHT22;40337;52.978;6.310;2023-09-18T00:08:28;15.90;99.90
54429;DHT22;40337;52.978;6.310;2023-09-18T00:10:55;15.90;99.90
54429;DHT22;40337;52.978;6.310;2023-09-18T00:13:21;15.90;99.90
54429;DHT22;40337;52.978;6.310;2023-09-18T00:15:47;15.90;99.90
54429;DHT22;40337;52.978;6.310;2023-09-18T00:18:14;15.90;99.90
54429;DHT22;40337;52.978;6.310;2023-09-18T00:20:40;15.90;99.90
54429;DHT22;40337;52.978;6.310;2023-09-18T00:23:07;16.00;99.90
54429;DHT22;40337;52.978;6.310;2023-09-18T00:25:33;16.00;99.90
54429;DHT22;40337;52.978;6.310;2023-09-18T00:27:59;16.00;99.90
54429;DHT22;40337;52.978;6.310;2023-09-18T00:30:24;15.90;99.90
54429;DHT22;40337;52.978;6.310;2023-09-18T00:32:50;16.00;99.90
54429;DHT22;40337;52.978;6.310;2023-09-18T00:35:16;15.90;99.90
54429;DHT22;40337;52.978;6.310;2023-09-18T00:37:41;15.90;99.90
54429;DHT22;40337;52.978;6.310;2023-09-18T00:40:08;16.00;99.90
54429;DHT22;40337;52.978;6.310;2023-09-18T00:42:34;15.90;99.90
54429;DHT22;40337;52.978;6.310;2023-09-18T00:45:00;16.00;99.90
54429;DHT22;40337;52.978;6.310;2023-09-18T00:47:25;16.00;99.90
54429;DHT22;40337;52.978;6.310;2023-09-18T00:49:51;16.00;99.90
54429;DHT22;40337;52.978;6.310;2023-09-18T00:52:19;16.00;99.90
54429;DHT22;40337;52.978;6.310;2023-09-18T00:54:47;16.00;99.90
54429;DHT22;40337;52.978;6.310;2023-09-18T00:57:13;16.00;99.90
54429;DHT22;40337;52.978;6.310;2023-09-18T00:59:39;16.00;99.90
54429;DHT22;40337;52.978;6.310;2023-09-18T01:02:05;16.00;99.90
54429;DHT22;40337;52.978;6.310;2023-09-18T01:04:33;16.00;99.90
54429;DHT22;40337;52.978;6.310;2023-09-18T01:07:02;16.10;99.90
54429;DHT22;40337;52.978;6.310;2023-09-18T01:09:32;16.00;99.90
54429;DHT22;40337;52.978;6.310;2023-09-18T01:14:40;16.10;99.90
54429;DHT22;40337;52.978;6.310;2023-09-18T01:17:09;16.10;99.90
54429;DHT22;40337;52.978;6.310;2023-09-18T01:19:44;16.00;99.90
54429;DHT22;40337;52.978;6.310;2023-09-18T01:22:11;16.10;99.90
54429;DHT22;40337;52.978;6.310;2023-09-18T01:24:38;16.10;99.90
54429;DHT22;40337;52.978;6.310;2023-09-18T01:27:06;16.00;99.90
54429;DHT22;40337;52.978;6.310;2023-09-18T01:29:31;16.00;99.90
54429;DHT22;40337;52.978;6.310;2023-09-18T01:31:57;16.10;99.90
54429;DHT22;40337;52.978;6.310;2023-09-18T01:34:30;16.10;99.90
54429;DHT22;40337;52.978;6.310;2023-09-18T01:36:57;16.10;99.90
54429;DHT22;40337;52.978;6.310;2023-09-18T01:39:24;16.10;99.90
54429;DHT22;40337;52.978;6.310;2023-09-18T01:41:52;16.10;99.90
54429;DHT22;40337;52.978;6.310;2023-09-18T01:44:18;16.10;99.90
54429;DHT22;40337;52.978;6.310;2023-09-18T01:46:44;16.10;99.90
54429;DHT22;40337;52.978;6.310;2023-09-18T01:49:10;16.10;99.90
54429;DHT22;40337;52.978;6.310;2023-09-18T01:51:35;16.10;99.90
54429;DHT22;40337;52.978;6.310;2023-09-18T01:54:01;16.10;99.90
54429;DHT22;40337;52.978;6.310;2023-09-18T01:56:27;16.10;99.90
54429;DHT22;40337;52.978;6.310;2023-09-18T01:58:53;16.10;99.90
54429;DHT22;40337;52.978;6.310;2023-09-18T02:01:18;16.20;99.90
54429;DHT22;40337;52.978;6.310;2023-09-18T02:03:44;16.20;99.90
54429;DHT22;40337;52.978;6.310;2023-09-18T02:06:11;16.30;99.90
54429;DHT22;40337;52.978;6.310;2023-09-18T02:08:36;16.30;99.90
54429;DHT22;40337;52.978;6.310;2023-09-18T02:11:02;16.30;99.90
54429;DHT22;40337;52.978;6.310;2023-09-18T02:13:30;16.30;99.90
54429;DHT22;40337;52.978;6.310;2023-09-18T02:15:56;16.30;99.90
54429;DHT22;40337;52.978;6.310;2023-09-18T02:18:22;16.40;99.90
54429;DHT22;40337;52.978;6.310;2023-09-18T02:20:47;16.40;99.90
54429;DHT22;40337;52.978;6.310;2023-09-18T02:23:18;16.40;99.90
54429;DHT22;40337;52.978;6.310;2023-09-18T02:25:44;16.50;99.90
54429;DHT22;40337;52.978;6.310;2023-09-18T02:28:10;16.50;99.90
54429;DHT22;40337;52.978;6.310;2023-09-18T02:30:35;16.50;99.90
54429;DHT22;40337;52.978;6.310;2023-09-18T02:33:01;16.50;99.90
54429;DHT22;40337;52.978;6.310;2023-09-18T02:35:30;16.50;99.90
54429;DHT22;40337;52.978;6.310;2023-09-18T02:37:56;16.50;99.90
54429;DHT22;40337;52.978;6.310;2023-09-18T02:40:21;16.60;99.90
54429;DHT22;40337;52.978;6.310;2023-09-18T02:42:47;16.60;99.90
54429;DHT22;40337;52.978;6.310;2023-09-18T02:45:12;16.60;99.90
54429;DHT22;40337;52.978;6.310;2023-09-18T02:47:38;16.60;99.90
54429;DHT22;40337;52.978;6.310;2023-09-18T02:50:07;16.70;99.90
54429;DHT22;40337;52.978;6.310;2023-09-18T02:52:32;16.60;99.90
54429;DHT22;40337;52.978;6.310;2023-09-18T02:54:58;16.60;99.90
54429;DHT22;40337;52.978;6.310;2023-09-18T02:57:23;16.70;99.90
54429;DHT22;40337;52.978;6.310;2023-09-18T02:59:49;16.70;99.90
54429;DHT22;40337;52.978;6.310;2023-09-18T03:02:15;16.70;99.90
54429;DHT22;40337;52.978;6.310;2023-09-18T03:04:40;16.70;99.90
54429;DHT22;40337;52.978;6.310;2023-09-18T03:07:06;16.70;99.90
54429;DHT22;40337;52.978;6.310;2023-09-18T03:09:31;16.70;99.90
54429;DHT22;40337;52.978;6.310;2023-09-18T03:11:57;16.70;99.90
54429;DHT22;40337;52.978;6.310;2023-09-18T03:14:22;16.80;99.90
54429;DHT22;40337;52.978;6.310;2023-09-18T03:16:48;16.80;99.90
54429;DHT22;40337;52.978;6.310;2023-09-18T03:19:13;16.90;99.90
54429;DHT22;40337;52.978;6.310;2023-09-18T03:21:39;16.90;99.90
54429;DHT22;40337;52.978;6.310;2023-09-18T03:24:05;16.90;99.90
54429;DHT22;40337;52.978;6.310;2023-09-18T03:26:30;17.00;99.90
54429;DHT22;40337;52.978;6.310;2023-09-18T03:28:56;17.00;99.90
54429;DHT22;40337;52.978;6.310;2023-09-18T03:31:21;17.00;99.90
54429;DHT22;40337;52.978;6.310;2023-09-18T03:33:47;17.00;99.90
54429;DHT22;40337;52.978;6.310;2023-09-18T03:36:13;17.20;99.90
54429;DHT22;40337;52.978;6.310;2023-09-18T03:38:39;17.10;99.90
54429;DHT22;40337;52.978;6.310;2023-09-18T03:41:04;17.20;99.90
54429;DHT22;40337;52.978;6.310;2023-09-18T03:43:30;17.20;99.90
54429;DHT22;40337;52.978;6.310;2023-09-18T03:46:03;17.20;99.90
54429;DHT22;40337;52.978;6.310;2023-09-18T03:48:29;17.30;99.90
54429;DHT22;40337;52.978;6.310;2023-09-18T03:50:56;17.20;99.90
54429;DHT22;40337;52.978;6.310;2023-09-18T03:53:21;17.20;99.90
54429;DHT22;40337;52.978;6.310;2023-09-18T03:55:48;17.30;99.90
54429;DHT22;40337;52.978;6.310;2023-09-18T03:58:14;17.30;99.90
54429;DHT22;40337;52.978;6.310;2023-09-18T04:00:39;17.30;99.90
54429;DHT22;40337;52.978;6.310;2023-09-18T04:03:05;17.30;99.90
54429;DHT22;40337;52.978;6.310;2023-09-18T04:05:30;17.30;99.90
54429;DHT22;40337;52.978;6.310;2023-09-18T04:07:56;17.30;99.90
54429;DHT22;40337;52.978;6.310;2023-09-18T04:10:22;17.30;99.90
54429;DHT22;40337;52.978;6.310;2023-09-18T04:12:49;17.40;99.90
54429;DHT22;40337;52.978;6.310;2023-09-18T04:15:16;17.30;99.90
54429;DHT22;40337;52.978;6.310;2023-09-18T04:17:43;17.30;99.90
54429;DHT22;40337;52.978;6.310;2023-09-18T04:20:10;17.40;99.90
54429;DHT22;40337;52.978;6.310;2023-09-18T04:22:36;17.30;99.90
54429;DHT22;40337;52.978;6.310;2023-09-18T04:25:01;17.40;99.90
54429;DHT22;40337;52.978;6.310;2023-09-18T04:27:30;17.40;99.90
54429;DHT22;40337;52.978;6.310;2023-09-18T04:29:56;17.30;99.90
54429;DHT22;40337;52.978;6.310;2023-09-18T04:32:22;17.40;99.90
54429;DHT22;40337;52.978;6.310;2023-09-18T04:34:48;17.40;99.90
54429;DHT22;40337;52.978;6.310;2023-09-18T04:37:14;17.40;99.90
54429;DHT22;40337;52.978;6.310;2023-09-18T04:39:39;17.50;99.90
54429;DHT22;40337;52.978;6.310;2023-09-18T04:42:05;17.50;99.90
54429;DHT22;40337;52.978;6.310;2023-09-18T04:44:31;17.50;99.90
54429;DHT22;40337;52.978;6.310;2023-09-18T04:46:56;17.60;99.90
54429;DHT22;40337;52.978;6.310;2023-09-18T04:49:23;17.50;99.90
54429;DHT22;40337;52.978;6.310;2023-09-18T04:51:49;17.60;99.90
54429;DHT22;40337;52.978;6.310;2023-09-18T04:54:15;17.50;99.90
54429;DHT22;40337;52.978;6.310;2023-09-18T04:56:41;17.60;99.90
54429;DHT22;40337;52.978;6.310;2023-09-18T04:59:06;17.60;99.90
54429;DHT22;40337;52.978;6.310;2023-09-18T05:01:32;17.60;99.90
54429;DHT22;40337;52.978;6.310;2023-09-18T05:03:57;17.50;99.90
54429;DHT22;40337;52.978;6.310;2023-09-18T05:06:23;17.60;99.90
54429;DHT22;40337;52.978;6.310;2023-09-18T05:08:49;17.50;99.90
54429;DHT22;40337;52.978;6.310;2023-09-18T05:11:15;17.50;99.90
54429;DHT22;40337;52.978;6.310;2023-09-18T05:13:40;17.50;99.90
54429;DHT22;40337;52.978;6.310;2023-09-18T05:16:06;17.50;99.90
54429;DHT22;40337;52.978;6.310;2023-09-18T05:18:31;17.40;99.90
54429;DHT22;40337;52.978;6.310;2023-09-18T05:20:57;17.50;99.90
54429;DHT22;40337;52.978;6.310;2023-09-18T05:23:23;17.50;99.90
54429;DHT22;40337;52.978;6.310;2023-09-18T05:25:49;17.50;99.90
54429;DHT22;40337;52.978;6.310;2023-09-18T05:28:14;17.50;99.90
54429;DHT22;40337;52.978;6.310;2023-09-18T05:30:40;17.50;99.90
54429;DHT22;40337;52.978;6.310;2023-09-18T05:33:07;17.50;99.90
54429;DHT22;40337;52.978;6.310;2023-09-18T05:35:41;17.40;99.90
54429;DHT22;40337;52.978;6.310;2023-09-18T05:38:08;17.50;99.90
54429;DHT22;40337;52.978;6.310;2023-09-18T05:40:35;17.40;99.90
54429;DHT22;40337;52.978;6.310;2023-09-18T05:43:01;17.50;99.90
54429;DHT22;40337;52.978;6.310;2023-09-18T05:45:26;17.50;99.90
54429;DHT22;40337;52.978;6.310;2023-09-18T05:47:52;17.60;99.90
54429;DHT22;40337;52.978;6.310;2023-09-18T05:50:19;17.60;99.90
54429;DHT22;40337;52.978;6.310;2023-09-18T05:52:46;17.60;99.90
54429;DHT22;40337;52.978;6.310;2023-09-18T05:55:12;17.70;99.90
54429;DHT22;40337;52.978;6.310;2023-09-18T05:57:38;17.60;99.90
54429;DHT22;40337;52.978;6.310;2023-09-18T06:00:04;17.70;99.90
54429;DHT22;40337;52.978;6.310;2023-09-18T06:02:30;17.70;99.90
54429;DHT22;40337;52.978;6.310;2023-09-18T06:04:57;17.80;99.90
54429;DHT22;40337;52.978;6.310;2023-09-18T06:07:26;17.80;99.90
54429;DHT22;40337;52.978;6.310;2023-09-18T06:09:52;17.90;99.90
54429;DHT22;40337;52.978;6.310;2023-09-18T06:12:18;17.90;99.90
54429;DHT22;40337;52.978;6.310;2023-09-18T06:14:43;17.90;99.90
54429;DHT22;40337;52.978;6.310;2023-09-18T06:17:11;18.00;99.90
54429;DHT22;40337;52.978;6.310;2023-09-18T06:19:37;18.10;99.90
54429;DHT22;40337;52.978;6.310;2023-09-18T06:22:03;18.20;99.90
54429;DHT22;40337;52.978;6.310;2023-09-18T06:24:28;18.10;99.90
54429;DHT22;40337;52.978;6.310;2023-09-18T06:26:54;18.20;99.90
54429;DHT22;40337;52.978;6.310;2023-09-18T06:29:20;18.20;99.90
54429;DHT22;40337;52.978;6.310;2023-09-18T06:31:46;18.30;99.90
54429;DHT22;40337;52.978;6.310;2023-09-18T06:34:11;18.30;99.90
54429;DHT22;40337;52.978;6.310;2023-09-18T06:36:37;18.30;99.90
54429;DHT22;40337;52.978;6.310;2023-09-18T06:39:03;18.30;99.90
54429;DHT22;40337;52.978;6.310;2023-09-18T06:41:28;18.40;99.90
54429;DHT22;40337;52.978;6.310;2023-09-18T06:43:54;18.40;99.90
54429;DHT22;40337;52.978;6.310;2023-09-18T06:46:19;18.50;99.90
54429;DHT22;40337;52.978;6.310;2023-09-18T06:48:45;18.40;99.90
54429;DHT22;40337;52.978;6.310;2023-09-18T06:51:15;18.50;99.90
54429;DHT22;40337;52.978;6.310;2023-09-18T06:53:41;18.40;99.90
54429;DHT22;40337;52.978;6.310;2023-09-18T06:56:06;18.40;99.90
54429;DHT22;40337;52.978;6.310;2023-09-18T06:58:34;18.50;99.90
54429;DHT22;40337;52.978;6.310;2023-09-18T07:01:00;18.50;99.90
54429;DHT22;40337;52.978;6.310;2023-09-18T07:03:25;18.50;99.90
54429;DHT22;40337;52.978;6.310;2023-09-18T07:05:51;18.50;99.90
54429;DHT22;40337;52.978;6.310;2023-09-18T07:08:16;18.50;99.90
54429;DHT22;40337;52.978;6.310;2023-09-18T07:10:45;18.50;99.90
54429;DHT22;40337;52.978;6.310;2023-09-18T07:13:10;18.50;99.90
54429;DHT22;40337;52.978;6.310;2023-09-18T07:15:37;18.50;99.90
54429;DHT22;40337;52.978;6.310;2023-09-18T07:18:03;18.50;99.90
54429;DHT22;40337;52.978;6.310;2023-09-18T07:20:29;18.50;99.90
54429;DHT22;40337;52.978;6.310;2023-09-18T07:22:55;18.50;99.90
54429;DHT22;40337;52.978;6.310;2023-09-18T07:25:21;18.50;99.90
54429;DHT22;40337;52.978;6.310;2023-09-18T07:27:46;18.40;99.90
54429;DHT22;40337;52.978;6.310;2023-09-18T07:30:13;18.40;99.90
54429;DHT22;40337;52.978;6.310;2023-09-18T07:32:43;18.40;99.90
54429;DHT22;40337;52.978;6.310;2023-09-18T07:35:09;18.30;99.90
54429;DHT22;40337;52.978;6.310;2023-09-18T07:37:35;18.40;99.90
54429;DHT22;40337;52.978;6.310;2023-09-18T07:40:03;18.40;99.90
54429;DHT22;40337;52.978;6.310;2023-09-18T07:42:29;18.40;99.90
54429;DHT22;40337;52.978;6.310;2023-09-18T07:44:54;18.40;99.90
54429;DHT22;40337;52.978;6.310;2023-09-18T07:47:20;18.40;99.90
54429;DHT22;40337;52.978;6.310;2023-09-18T07:49:46;18.40;99.90
54429;DHT22;40337;52.978;6.310;2023-09-18T07:52:12;18.50;99.90
54429;DHT22;40337;52.978;6.310;2023-09-18T07:54:37;18.50;99.90
54429;DHT22;40337;52.978;6.310;2023-09-18T07:57:03;18.50;99.90
54429;DHT22;40337;52.978;6.310;2023-09-18T07:59:28;18.50;99.90
54429;DHT22;40337;52.978;6.310;2023-09-18T08:01:54;18.60;99.90
54429;DHT22;40337;52.978;6.310;2023-09-18T08:04:20;18.50;99.90
54429;DHT22;40337;52.978;6.310;2023-09-18T08:06:46;18.60;99.90
54429;DHT22;40337;52.978;6.310;2023-09-18T08:09:12;18.50;99.90
54429;DHT22;40337;52.978;6.310;2023-09-18T08:11:42;18.60;99.90
54429;DHT22;40337;52.978;6.310;2023-09-18T08:14:09;18.60;99.90
54429;DHT22;40337;52.978;6.310;2023-09-18T08:16:35;18.60;99.90
54429;DHT22;40337;52.978;6.310;2023-09-18T08:19:01;18.60;99.90
54429;DHT22;40337;52.978;6.310;2023-09-18T08:21:27;18.60;99.90
54429;DHT22;40337;52.978;6.310;2023-09-18T08:23:54;18.60;99.90
54429;DHT22;40337;52.978;6.310;2023-09-18T08:26:20;18.70;99.90
54429;DHT22;40337;52.978;6.310;2023-09-18T08:28:46;18.70;99.90
54429;DHT22;40337;52.978;6.310;2023-09-18T08:31:11;18.80;99.90
54429;DHT22;40337;52.978;6.310;2023-09-18T08:33:37;18.80;99.90
54429;DHT22;40337;52.978;6.310;2023-09-18T08:36:03;18.90;99.90
54429;DHT22;40337;52.978;6.310;2023-09-18T08:38:28;19.00;99.90
54429;DHT22;40337;52.978;6.310;2023-09-18T08:40:54;19.00;99.90
54429;DHT22;40337;52.978;6.310;2023-09-18T08:43:21;19.00;99.90
54429;DHT22;40337;52.978;6.310;2023-09-18T08:45:52;19.00;99.90
54429;DHT22;40337;52.978;6.310;2023-09-18T08:48:21;19.00;99.90
54429;DHT22;40337;52.978;6.310;2023-09-18T08:50:47;19.00;99.90
54429;DHT22;40337;52.978;6.310;2023-09-18T08:53:13;19.00;99.90
54429;DHT22;40337;52.978;6.310;2023-09-18T08:55:40;19.00;99.90
54429;DHT22;40337;52.978;6.310;2023-09-18T08:58:07;19.00;99.90
54429;DHT22;40337;52.978;6.310;2023-09-18T09:00:38;19.00;99.90
54429;DHT22;40337;52.978;6.310;2023-09-18T09:03:04;19.00;99.90
54429;DHT22;40337;52.978;6.310;2023-09-18T09:05:31;19.00;99.90
54429;DHT22;40337;52.978;6.310;2023-09-18T09:07:57;19.00;99.90
54429;DHT22;40337;52.978;6.310;2023-09-18T09:10:22;19.10;99.90
54429;DHT22;40337;52.978;6.310;2023-09-18T09:12:59;19.10;99.90
54429;DHT22;40337;52.978;6.310;2023-09-18T09:15:33;19.10;99.90
54429;DHT22;40337;52.978;6.310;2023-09-18T09:18:07;19.10;99.90
54429;DHT22;40337;52.978;6.310;2023-09-18T09:20:35;19.20;99.90
54429;DHT22;40337;52.978;6.310;2023-09-18T09:23:05;19.20;99.90
54429;DHT22;40337;52.978;6.310;2023-09-18T09:25:32;19.30;99.90
54429;DHT22;40337;52.978;6.310;2023-09-18T09:27:59;19.30;99.90
54429;DHT22;40337;52.978;6.310;2023-09-18T09:30:27;19.40;99.90
54429;DHT22;40337;52.978;6.310;2023-09-18T09:32:55;19.40;99.90
54429;DHT22;40337;52.978;6.310;2023-09-18T09:35:26;19.50;99.90
54429;DHT22;40337;52.978;6.310;2023-09-18T09:37:54;19.50;99.90
54429;DHT22;40337;52.978;6.310;2023-09-18T09:40:22;19.50;99.90
54429;DHT22;40337;52.978;6.310;2023-09-18T09:42:50;19.60;99.90
54429;DHT22;40337;52.978;6.310;2023-09-18T09:45:16;19.60;99.90
54429;DHT22;40337;52.978;6.310;2023-09-18T09:47:43;19.70;99.90
54429;DHT22;40337;52.978;6.310;2023-09-18T09:50:11;19.80;99.90
54429;DHT22;40337;52.978;6.310;2023-09-18T09:52:46;19.80;99.90
54429;DHT22;40337;52.978;6.310;2023-09-18T09:55:23;19.90;99.90
54429;DHT22;40337;52.978;6.310;2023-09-18T09:57:55;20.00;99.90
54429;DHT22;40337;52.978;6.310;2023-09-18T10:00:24;20.00;99.90
54429;DHT22;40337;52.978;6.310;2023-09-18T10:02:57;20.20;99.90
54429;DHT22;40337;52.978;6.310;2023-09-18T10:05:29;20.50;99.90
54429;DHT22;40337;52.978;6.310;2023-09-18T10:08:00;20.60;99.90
54429;DHT22;40337;52.978;6.310;2023-09-18T10:10:39;20.70;99.90
54429;DHT22;40337;52.978;6.310;2023-09-18T10:13:28;20.70;99.90
54429;DHT22;40337;52.978;6.310;2023-09-18T10:15:58;20.90;99.90
54429;DHT22;40337;52.978;6.310;2023-09-18T10:18:27;21.00;99.90
54429;DHT22;40337;52.978;6.310;2023-09-18T10:21:00;21.30;99.90
54429;DHT22;40337;52.978;6.310;2023-09-18T10:23:37;21.30;99.90
54429;DHT22;40337;52.978;6.310;2023-09-18T10:26:05;21.20;99.90
54429;DHT22;40337;52.978;6.310;2023-09-18T10:28:31;21.60;99.90
54429;DHT22;40337;52.978;6.310;2023-09-18T10:30:58;21.60;99.90
54429;DHT22;40337;52.978;6.310;2023-09-18T10:33:25;21.70;99.90
54429;DHT22;40337;52.978;6.310;2023-09-18T10:35:53;22.30;99.90
54429;DHT22;40337;52.978;6.310;2023-09-18T10:38:18;22.50;99.90
54429;DHT22;40337;52.978;6.310;2023-09-18T10:40:46;22.60;99.90
54429;DHT22;40337;52.978;6.310;2023-09-18T10:43:15;22.50;99.90
54429;DHT22;40337;52.978;6.310;2023-09-18T10:45:41;22.10;99.90
54429;DHT22;40337;52.978;6.310;2023-09-18T10:48:08;22.00;99.90
54429;DHT22;40337;52.978;6.310;2023-09-18T10:50:34;21.70;99.90
54429;DHT22;40337;52.978;6.310;2023-09-18T10:53:00;21.40;99.90
54429;DHT22;40337;52.978;6.310;2023-09-18T10:55:26;21.20;99.90
54429;DHT22;40337;52.978;6.310;2023-09-18T10:57:54;21.10;99.90
54429;DHT22;40337;52.978;6.310;2023-09-18T11:00:23;20.90;99.90
54429;DHT22;40337;52.978;6.310;2023-09-18T11:05:38;20.90;99.90
54429;DHT22;40337;52.978;6.310;2023-09-18T11:08:26;21.10;99.90
54429;DHT22;40337;52.978;6.310;2023-09-18T11:11:00;21.70;99.90
54429;DHT22;40337;52.978;6.310;2023-09-18T11:13:36;22.30;99.90
54429;DHT22;40337;52.978;6.310;2023-09-18T11:16:13;22.20;99.90
54429;DHT22;40337;52.978;6.310;2023-09-18T11:18:39;21.80;99.90
54429;DHT22;40337;52.978;6.310;2023-09-18T11:21:08;21.80;99.90
54429;DHT22;40337;52.978;6.310;2023-09-18T11:23:36;22.30;99.90
54429;DHT22;40337;52.978;6.310;2023-09-18T11:26:07;22.70;99.90
54429;DHT22;40337;52.978;6.310;2023-09-18T11:28:33;22.90;99.90
54429;DHT22;40337;52.978;6.310;2023-09-18T11:30:59;22.90;99.90
54429;DHT22;40337;52.978;6.310;2023-09-18T11:33:39;23.20;99.90
54429;DHT22;40337;52.978;6.310;2023-09-18T11:36:13;23.10;99.90
54429;DHT22;40337;52.978;6.310;2023-09-18T11:38:52;23.20;99.90
54429;DHT22;40337;52.978;6.310;2023-09-18T11:41:25;23.20;99.90
54429;DHT22;40337;52.978;6.310;2023-09-18T11:43:52;22.80;99.90
54429;DHT22;40337;52.978;6.310;2023-09-18T11:46:19;22.60;99.90
54429;DHT22;40337;52.978;6.310;2023-09-18T11:48:47;22.80;99.90
54429;DHT22;40337;52.978;6.310;2023-09-18T11:51:21;23.00;99.90
54429;DHT22;40337;52.978;6.310;2023-09-18T11:53:47;22.80;99.90
54429;DHT22;40337;52.978;6.310;2023-09-18T11:56:15;22.60;99.90
54429;DHT22;40337;52.978;6.310;2023-09-18T11:58:51;22.50;99.90
54429;DHT22;40337;52.978;6.310;2023-09-18T12:01:18;22.20;99.90
54429;DHT22;40337;52.978;6.310;2023-09-18T12:03:44;22.30;99.90
54429;DHT22;40337;52.978;6.310;2023-09-18T12:06:10;22.40;99.90
54429;DHT22;40337;52.978;6.310;2023-09-18T12:08:42;22.60;99.90
54429;DHT22;40337;52.978;6.310;2023-09-18T12:11:08;23.20;99.90
54429;DHT22;40337;52.978;6.310;2023-09-18T12:13:34;23.40;99.90
54429;DHT22;40337;52.978;6.310;2023-09-18T12:16:04;23.50;99.90
54429;DHT22;40337;52.978;6.310;2023-09-18T12:18:32;23.50;99.90
54429;DHT22;40337;52.978;6.310;2023-09-18T12:21:01;23.30;99.90
54429;DHT22;40337;52.978;6.310;2023-09-18T12:23:36;23.00;99.90
54429;DHT22;40337;52.978;6.310;2023-09-18T12:26:02;22.90;99.90
54429;DHT22;40337;52.978;6.310;2023-09-18T12:28:29;22.70;99.90
54429;DHT22;40337;52.978;6.310;2023-09-18T12:30:56;22.70;99.90
54429;DHT22;40337;52.978;6.310;2023-09-18T12:33:25;22.50;99.90
54429;DHT22;40337;52.978;6.310;2023-09-18T12:35:51;22.30;99.90
54429;DHT22;40337;52.978;6.310;2023-09-18T12:38:19;22.10;99.90
54429;DHT22;40337;52.978;6.310;2023-09-18T12:40:50;22.00;99.90
54429;DHT22;40337;52.978;6.310;2023-09-18T12:43:16;21.80;99.90
54429;DHT22;40337;52.978;6.310;2023-09-18T12:45:43;21.70;99.90
54429;DHT22;40337;52.978;6.310;2023-09-18T12:48:09;21.70;99.90
54429;DHT22;40337;52.978;6.310;2023-09-18T12:50:36;21.70;99.90
54429;DHT22;40337;52.978;6.310;2023-09-18T12:53:12;21.90;99.90
54429;DHT22;40337;52.978;6.310;2023-09-18T12:55:38;22.30;99.90
54429;DHT22;40337;52.978;6.310;2023-09-18T12:58:05;22.80;99.90
54429;DHT22;40337;52.978;6.310;2023-09-18T13:00:33;23.20;99.90
54429;DHT22;40337;52.978;6.310;2023-09-18T13:02:59;23.00;99.90
54429;DHT22;40337;52.978;6.310;2023-09-18T13:05:26;23.20;99.90
54429;DHT22;40337;52.978;6.310;2023-09-18T13:07:53;23.50;99.90
54429;DHT22;40337;52.978;6.310;2023-09-18T13:10:19;23.50;99.90
54429;DHT22;40337;52.978;6.310;2023-09-18T13:12:51;23.60;99.90
54429;DHT22;40337;52.978;6.310;2023-09-18T13:15:33;23.30;99.90
54429;DHT22;40337;52.978;6.310;2023-09-18T13:18:01;23.40;99.90
54429;DHT22;40337;52.978;6.310;2023-09-18T13:20:33;23.50;99.90
54429;DHT22;40337;52.978;6.310;2023-09-18T13:23:00;23.20;99.90
54429;DHT22;40337;52.978;6.310;2023-09-18T13:25:35;22.90;99.90
54429;DHT22;40337;52.978;6.310;2023-09-18T13:28:03;23.00;99.90
54429;DHT22;40337;52.978;6.310;2023-09-18T13:30:30;23.20;99.90
54429;DHT22;40337;52.978;6.310;2023-09-18T13:33:13;23.40;99.90
54429;DHT22;40337;52.978;6.310;2023-09-18T13:35:43;23.40;99.90
54429;DHT22;40337;52.978;6.310;2023-09-18T13:38:11;23.20;99.90
54429;DHT22;40337;52.978;6.310;2023-09-18T13:40:38;22.90;99.90
54429;DHT22;40337;52.978;6.310;2023-09-18T13:43:05;23.00;99.90
54429;DHT22;40337;52.978;6.310;2023-09-18T13:45:34;22.90;99.90
54429;DHT22;40337;52.978;6.310;2023-09-18T13:48:06;22.90;99.90
54429;DHT22;40337;52.978;6.310;2023-09-18T13:50:33;22.70;99.90
54429;DHT22;40337;52.978;6.310;2023-09-18T13:53:00;22.80;99.90
54429;DHT22;40337;52.978;6.310;2023-09-18T13:55:25;23.00;99.90
54429;DHT22;40337;52.978;6.310;2023-09-18T13:57:51;23.10;99.90
54429;DHT22;40337;52.978;6.310;2023-09-18T14:00:17;23.10;99.90
54429;DHT22;40337;52.978;6.310;2023-09-18T14:02:43;23.10;99.90
54429;DHT22;40337;52.978;6.310;2023-09-18T14:05:09;22.90;99.90
54429;DHT22;40337;52.978;6.310;2023-09-18T14:07:35;22.80;99.90
54429;DHT22;40337;52.978;6.310;2023-09-18T14:10:01;22.80;99.90
54429;DHT22;40337;52.978;6.310;2023-09-18T14:12:30;22.90;99.90
54429;DHT22;40337;52.978;6.310;2023-09-18T14:14:56;22.90;99.90
54429;DHT22;40337;52.978;6.310;2023-09-18T14:17:22;23.00;99.90
54429;DHT22;40337;52.978;6.310;2023-09-18T14:19:48;22.80;99.90
54429;DHT22;40337;52.978;6.310;2023-09-18T14:22:14;22.90;99.90
54429;DHT22;40337;52.978;6.310;2023-09-18T14:24:40;22.90;99.90
54429;DHT22;40337;52.978;6.310;2023-09-18T14:27:06;23.00;99.90
54429;DHT22;40337;52.978;6.310;2023-09-18T14:29:33;22.70;99.90
54429;DHT22;40337;52.978;6.310;2023-09-18T14:32:01;22.50;99.90
54429;DHT22;40337;52.978;6.310;2023-09-18T14:34:27;22.40;99.90
54429;DHT22;40337;52.978;6.310;2023-09-18T14:36:53;22.40;99.90
54429;DHT22;40337;52.978;6.310;2023-09-18T14:39:18;22.40;99.90
54429;DHT22;40337;52.978;6.310;2023-09-18T14:41:44;22.60;99.90
54429;DHT22;40337;52.978;6.310;2023-09-18T14:44:10;22.70;99.90
54429;DHT22;40337;52.978;6.310;2023-09-18T14:46:36;22.80;99.90
54429;DHT22;40337;52.978;6.310;2023-09-18T14:49:05;22.80;99.90
54429;DHT22;40337;52.978;6.310;2023-09-18T14:51:33;22.80;99.90
54429;DHT22;40337;52.978;6.310;2023-09-18T14:53:59;22.80;99.90
54429;DHT22;40337;52.978;6.310;2023-09-18T14:56:25;22.80;99.90
54429;DHT22;40337;52.978;6.310;2023-09-18T14:58:51;22.80;99.90
54429;DHT22;40337;52.978;6.310;2023-09-18T15:01:21;22.80;99.90
54429;DHT22;40337;52.978;6.310;2023-09-18T15:03:47;22.80;99.90
54429;DHT22;40337;52.978;6.310;2023-09-18T15:06:17;22.70;99.90
54429;DHT22;40337;52.978;6.310;2023-09-18T15:08:42;22.70;99.90
54429;DHT22;40337;52.978;6.310;2023-09-18T15:11:08;22.60;99.90
54429;DHT22;40337;52.978;6.310;2023-09-18T15:13:34;22.50;99.90
54429;DHT22;40337;52.978;6.310;2023-09-18T15:16:04;22.40;99.90
54429;DHT22;40337;52.978;6.310;2023-09-18T15:18:48;22.50;99.90
54429;DHT22;40337;52.978;6.310;2023-09-18T15:21:15;22.40;99.90
54429;DHT22;40337;52.978;6.310;2023-09-18T15:23:40;22.50;99.90
54429;DHT22;40337;52.978;6.310;2023-09-18T15:26:06;22.50;99.90
54429;DHT22;40337;52.978;6.310;2023-09-18T15:28:32;22.60;99.90
54429;DHT22;40337;52.978;6.310;2023-09-18T15:30:59;22.50;99.90
54429;DHT22;40337;52.978;6.310;2023-09-18T15:33:25;22.50;99.90
54429;DHT22;40337;52.978;6.310;2023-09-18T15:35:51;22.50;99.90